createdAt,value
2018-02-15T00:00:12.236Z,0
2018-02-15T00:01:11.443Z,0
2018-02-15T00:02:11.690Z,0
2018-02-15T00:03:11.684Z,0
2018-02-15T00:04:10.909Z,0
2018-02-15T00:05:12.364Z,0
2018-02-15T00:06:11.906Z,0
2018-02-15T00:07:12.928Z,0
2018-02-15T00:08:11.872Z,0
2018-02-15T00:09:11.863Z,0
2018-02-15T00:10:12.589Z,0
2018-02-15T00:11:11.575Z,0
2018-02-15T00:12:11.329Z,0
2018-02-15T00:13:11.316Z,0
2018-02-15T00:14:11.032Z,0
2018-02-15T00:15:12.292Z,0
2018-02-15T00:16:11.528Z,0
2018-02-15T00:17:11.243Z,0
2018-02-15T00:18:11.000Z,0
2018-02-15T00:19:11.223Z,0
2018-02-15T00:20:12.543Z,0
2018-02-15T00:21:11.190Z,0
2018-02-15T00:22:10.680Z,0
2018-02-15T00:23:16.272Z,0
2018-02-15T00:24:10.910Z,0
2018-02-15T00:25:11.944Z,0
2018-02-15T00:26:10.883Z,0
2018-02-15T00:27:11.127Z,0
2018-02-15T00:28:10.869Z,0
2018-02-15T00:29:11.388Z,0
2018-02-15T00:30:12.233Z,0
2018-02-15T00:31:11.074Z,0
2018-02-15T00:32:11.318Z,0
2018-02-15T00:33:11.304Z,0
2018-02-15T00:34:11.551Z,0
2018-02-15T00:35:12.625Z,0
2018-02-15T00:36:10.778Z,0
2018-02-15T00:37:11.292Z,0
2018-02-15T00:38:11.551Z,0
2018-02-15T00:39:11.231Z,0
2018-02-15T00:40:11.615Z,0
2018-02-15T00:41:11.207Z,0
2018-02-15T00:42:11.198Z,0
2018-02-15T00:43:11.448Z,0
2018-02-15T00:44:11.174Z,0
2018-02-15T00:45:12.383Z,0
2018-02-15T00:46:11.147Z,0
2018-02-15T00:47:11.143Z,0
2018-02-15T00:48:10.371Z,0
2018-02-15T00:49:10.862Z,0
2018-02-15T00:50:12.018Z,0
2018-02-15T00:51:10.337Z,0
2018-02-15T00:52:10.574Z,0
2018-02-15T00:53:12.433Z,0
2018-02-15T00:54:10.797Z,0
2018-02-15T00:55:11.849Z,0
2018-02-15T00:56:11.023Z,0
2018-02-15T00:57:10.771Z,0
2018-02-15T00:58:10.250Z,0
2018-02-15T00:59:10.997Z,0
2018-02-15T01:00:11.769Z,0
2018-02-15T01:01:10.968Z,0
2018-02-15T01:02:11.206Z,0
2018-02-15T01:03:11.193Z,0
2018-02-15T01:04:11.186Z,0
2018-02-15T01:05:12.189Z,0
2018-02-15T01:06:10.681Z,0
2018-02-15T01:07:10.647Z,0
2018-02-15T01:08:10.646Z,0
2018-02-15T01:09:12.777Z,0
2018-02-15T01:10:12.306Z,0
2018-02-15T01:11:10.353Z,0
2018-02-15T01:12:10.590Z,0
2018-02-15T01:13:10.327Z,0
2018-02-15T01:14:10.820Z,0
2018-02-15T01:15:11.349Z,0
2018-02-15T01:16:11.049Z,0
2018-02-15T01:17:10.775Z,0
2018-02-15T01:18:10.514Z,0
2018-02-15T01:19:10.511Z,0
2018-02-15T01:20:11.603Z,0
2018-02-15T01:21:10.228Z,0
2018-02-15T01:22:10.984Z,0
2018-02-15T01:23:10.455Z,0
2018-02-15T01:24:12.621Z,0
2018-02-15T01:25:12.116Z,0
2018-02-15T01:26:10.697Z,0
2018-02-15T01:27:10.666Z,0
2018-02-15T01:28:10.398Z,0
2018-02-15T01:29:10.942Z,0
2018-02-15T01:30:11.519Z,0
2018-02-15T01:31:10.625Z,0
2018-02-15T01:32:10.357Z,0
2018-02-15T01:33:10.855Z,0
2018-02-15T01:34:10.568Z,0
2018-02-15T01:35:11.649Z,0
2018-02-15T01:36:10.310Z,0
2018-02-15T01:37:10.042Z,0
2018-02-15T01:38:10.276Z,0
2018-02-15T01:39:10.061Z,0
2018-02-15T01:40:10.955Z,0
2018-02-15T01:41:09.990Z,0
2018-02-15T01:42:10.225Z,0
2018-02-15T01:43:10.466Z,0
2018-02-15T01:44:09.949Z,0
2018-02-15T01:45:10.966Z,0
2018-02-15T01:46:10.699Z,0
2018-02-15T01:47:09.690Z,0
2018-02-15T01:48:09.675Z,0
2018-02-15T01:49:10.469Z,0
2018-02-15T01:50:11.170Z,0
2018-02-15T01:51:10.617Z,0
2018-02-15T01:52:10.646Z,0
2018-02-15T01:53:10.599Z,0
2018-02-15T01:54:13.541Z,0
2018-02-15T01:55:10.731Z,0
2018-02-15T01:56:10.079Z,0
2018-02-15T01:57:10.588Z,0
2018-02-15T01:58:10.537Z,0
2018-02-15T01:59:10.550Z,0
2018-02-15T02:00:10.051Z,0
2018-02-15T02:01:10.259Z,0
2018-02-15T02:02:10.472Z,0
2018-02-15T02:03:10.006Z,0
2018-02-15T02:04:09.463Z,0
2018-02-15T02:05:10.173Z,0
2018-02-15T02:06:09.745Z,0
2018-02-15T02:07:09.979Z,0
2018-02-15T02:08:10.192Z,0
2018-02-15T02:09:09.916Z,0
2018-02-15T02:10:10.554Z,0
2018-02-15T02:11:09.648Z,0
2018-02-15T02:12:09.904Z,0
2018-02-15T02:13:10.148Z,0
2018-02-15T02:14:09.857Z,0
2018-02-15T02:15:10.614Z,0
2018-02-15T02:16:10.108Z,0
2018-02-15T02:17:10.098Z,0
2018-02-15T02:18:10.324Z,0
2018-02-15T02:19:09.796Z,0
2018-02-15T02:20:10.640Z,0
2018-02-15T02:21:10.023Z,0
2018-02-15T02:22:09.778Z,0
2018-02-15T02:23:10.013Z,0
2018-02-15T02:24:09.734Z,0
2018-02-15T02:25:10.632Z,0
2018-02-15T02:26:10.233Z,0
2018-02-15T02:27:09.966Z,0
2018-02-15T02:28:09.956Z,0
2018-02-15T02:29:09.934Z,0
2018-02-15T02:30:10.739Z,0
2018-02-15T02:31:09.920Z,0
2018-02-15T02:32:09.925Z,0
2018-02-15T02:33:09.890Z,0
2018-02-15T02:34:09.906Z,0
2018-02-15T02:35:10.385Z,0
2018-02-15T02:36:10.142Z,0
2018-02-15T02:37:10.106Z,0
2018-02-15T02:38:09.324Z,0
2018-02-15T02:39:09.559Z,0
2018-02-15T02:40:15.965Z,0
2018-02-15T02:41:09.801Z,0
2018-02-15T02:42:09.803Z,0
2018-02-15T02:43:10.052Z,0
2018-02-15T02:44:09.515Z,0
2018-02-15T02:45:10.224Z,0
2018-02-15T02:46:09.738Z,0
2018-02-15T02:47:09.732Z,0
2018-02-15T02:48:09.975Z,0
2018-02-15T02:49:09.205Z,0
2018-02-15T02:50:10.196Z,0
2018-02-15T02:51:09.184Z,0
2018-02-15T02:52:09.684Z,0
2018-02-15T02:53:09.919Z,0
2018-02-15T02:54:09.919Z,0
2018-02-15T02:55:10.078Z,0
2018-02-15T02:56:10.203Z,0
2018-02-15T02:57:09.615Z,0
2018-02-15T02:58:09.359Z,0
2018-02-15T02:59:09.340Z,0
2018-02-15T03:00:10.022Z,0
2018-02-15T03:01:09.564Z,0
2018-02-15T03:02:09.807Z,0
2018-02-15T03:03:09.543Z,0
2018-02-15T03:04:09.529Z,0
2018-02-15T03:05:09.957Z,0
2018-02-15T03:06:09.245Z,0
2018-02-15T03:07:09.816Z,0
2018-02-15T03:08:09.721Z,0
2018-02-15T03:09:09.714Z,0
2018-02-15T03:10:09.623Z,0
2018-02-15T03:11:09.392Z,0
2018-02-15T03:12:09.195Z,0
2018-02-15T03:13:09.667Z,0
2018-02-15T03:14:09.404Z,0
2018-02-15T03:15:10.131Z,0
2018-02-15T03:16:09.390Z,0
2018-02-15T03:17:09.372Z,0
2018-02-15T03:18:09.353Z,0
2018-02-15T03:19:09.358Z,0
2018-02-15T03:20:09.748Z,0
2018-02-15T03:21:09.580Z,0
2018-02-15T03:22:09.055Z,0
2018-02-15T03:23:09.061Z,0
2018-02-15T03:24:08.776Z,0
2018-02-15T03:25:09.976Z,0
2018-02-15T03:26:10.266Z,0
2018-02-15T03:27:09.260Z,0
2018-02-15T03:28:09.235Z,0
2018-02-15T03:29:08.988Z,0
2018-02-15T03:30:09.674Z,0
2018-02-15T03:31:08.965Z,0
2018-02-15T03:32:09.460Z,0
2018-02-15T03:33:09.198Z,0
2018-02-15T03:34:09.173Z,0
2018-02-15T03:35:09.848Z,0
2018-02-15T03:36:08.635Z,0
2018-02-15T03:37:09.409Z,0
2018-02-15T03:38:09.375Z,0
2018-02-15T03:39:09.110Z,0
2018-02-15T03:40:08.804Z,0
2018-02-15T03:41:08.884Z,0
2018-02-15T03:42:08.835Z,0
2018-02-15T03:43:09.058Z,0
2018-02-15T03:44:08.793Z,0
2018-02-15T03:45:09.132Z,0
2018-02-15T03:46:08.768Z,0
2018-02-15T03:47:08.753Z,0
2018-02-15T03:48:09.271Z,0
2018-02-15T03:49:08.736Z,0
2018-02-15T03:50:08.996Z,0
2018-02-15T03:51:08.714Z,0
2018-02-15T03:52:08.703Z,0
2018-02-15T03:53:08.686Z,0
2018-02-15T03:54:08.930Z,0
2018-02-15T03:55:09.312Z,0
2018-02-15T03:56:12.912Z,0
2018-02-15T03:57:08.898Z,0
2018-02-15T03:58:08.633Z,0
2018-02-15T03:59:08.621Z,0
2018-02-15T04:00:08.835Z,0
2018-02-15T04:01:09.101Z,0
2018-02-15T04:02:08.602Z,0
2018-02-15T04:03:08.837Z,0
2018-02-15T04:04:09.073Z,0
2018-02-15T04:05:08.755Z,0
2018-02-15T04:06:08.555Z,0
2018-02-15T04:07:08.780Z,0
2018-02-15T04:08:08.527Z,0
2018-02-15T04:09:08.258Z,0
2018-02-15T04:10:08.797Z,0
2018-02-15T04:11:08.229Z,0
2018-02-15T04:12:08.515Z,0
2018-02-15T04:13:08.472Z,0
2018-02-15T04:14:08.695Z,0
2018-02-15T04:15:08.395Z,0
2018-02-15T04:16:08.168Z,0
2018-02-15T04:17:08.421Z,0
2018-02-15T04:18:08.670Z,0
2018-02-15T04:19:08.674Z,0
2018-02-15T04:20:08.963Z,0
2018-02-15T04:21:08.627Z,0
2018-02-15T04:22:08.350Z,0
2018-02-15T04:23:08.938Z,0
2018-02-15T04:24:08.606Z,0
2018-02-15T04:25:08.785Z,0
2018-02-15T04:26:08.305Z,0
2018-02-15T04:27:09.053Z,0
2018-02-15T04:28:08.554Z,0
2018-02-15T04:29:08.283Z,0
2018-02-15T04:30:09.100Z,0
2018-02-15T04:31:08.834Z,0
2018-02-15T04:32:08.243Z,0
2018-02-15T04:33:08.747Z,0
2018-02-15T04:34:07.965Z,0
2018-02-15T04:35:08.718Z,0
2018-02-15T04:36:08.465Z,0
2018-02-15T04:37:08.201Z,0
2018-02-15T04:38:08.440Z,0
2018-02-15T04:39:08.688Z,0
2018-02-15T04:40:09.046Z,0
2018-02-15T04:41:07.652Z,0
2018-02-15T04:42:11.094Z,0
2018-02-15T04:43:08.648Z,0
2018-02-15T04:44:08.364Z,0
2018-02-15T04:45:08.533Z,0
2018-02-15T04:46:08.097Z,0
2018-02-15T04:47:08.330Z,0
2018-02-15T04:48:08.318Z,0
2018-02-15T04:49:08.054Z,0
2018-02-15T04:50:08.142Z,0
2018-02-15T04:51:08.043Z,0
2018-02-15T04:52:07.815Z,0
2018-02-15T04:53:08.261Z,0
2018-02-15T04:54:08.255Z,0
2018-02-15T04:55:08.376Z,0
2018-02-15T04:56:08.236Z,0
2018-02-15T04:57:10.628Z,0
2018-02-15T04:58:08.207Z,0
2018-02-15T04:59:08.195Z,0
2018-02-15T05:00:07.760Z,0
2018-02-15T05:01:07.935Z,0
2018-02-15T05:02:08.166Z,0
2018-02-15T05:03:08.161Z,0
2018-02-15T05:04:08.178Z,0
2018-02-15T05:05:08.287Z,0
2018-02-15T05:06:07.882Z,0
2018-02-15T05:07:08.122Z,0
2018-02-15T05:08:07.856Z,0
2018-02-15T05:09:07.585Z,0
2018-02-15T05:10:08.171Z,0
2018-02-15T05:11:08.062Z,0
2018-02-15T05:12:08.268Z,0
2018-02-15T05:13:07.793Z,0
2018-02-15T05:14:07.791Z,0
2018-02-15T05:15:07.955Z,0
2018-02-15T05:16:07.511Z,0
2018-02-15T05:17:08.006Z,0
2018-02-15T05:18:07.225Z,0
2018-02-15T05:19:07.739Z,0
2018-02-15T05:20:07.475Z,0
2018-02-15T05:21:07.965Z,0
2018-02-15T05:22:07.442Z,0
2018-02-15T05:23:08.195Z,0
2018-02-15T05:24:07.938Z,0
2018-02-15T05:25:07.675Z,0
2018-02-15T05:26:07.398Z,0
2018-02-15T05:27:07.917Z,0
2018-02-15T05:28:08.077Z,0
2018-02-15T05:29:07.881Z,0
2018-02-15T05:30:07.872Z,0
2018-02-15T05:31:07.857Z,0
2018-02-15T05:32:07.620Z,0
2018-02-15T05:33:07.854Z,0
2018-02-15T05:34:08.058Z,0
2018-02-15T05:35:07.810Z,0
2018-02-15T05:36:07.787Z,0
2018-02-15T05:37:07.528Z,0
2018-02-15T05:38:07.510Z,0
2018-02-15T05:39:07.258Z,0
2018-02-15T05:40:07.485Z,0
2018-02-15T05:41:07.756Z,0
2018-02-15T05:42:07.765Z,0
2018-02-15T05:43:08.034Z,0
2018-02-15T05:44:07.192Z,0
2018-02-15T05:45:07.712Z,0
2018-02-15T05:46:07.713Z,0
2018-02-15T05:47:07.703Z,0
2018-02-15T05:48:07.690Z,0
2018-02-15T05:49:07.391Z,0
2018-02-15T05:50:07.705Z,0
2018-02-15T05:51:07.651Z,0
2018-02-15T05:52:07.621Z,0
2018-02-15T05:53:07.346Z,0
2018-02-15T05:54:07.090Z,0
2018-02-15T05:55:07.604Z,0
2018-02-15T05:56:07.576Z,0
2018-02-15T05:57:07.856Z,0
2018-02-15T05:58:07.849Z,0
2018-02-15T05:59:07.529Z,0
2018-02-15T06:00:07.600Z,0
2018-02-15T06:01:07.021Z,0
2018-02-15T06:02:07.801Z,0
2018-02-15T06:03:07.753Z,0
2018-02-15T06:04:07.013Z,0
2018-02-15T06:05:07.221Z,0
2018-02-15T06:06:07.454Z,0
2018-02-15T06:07:07.210Z,0
2018-02-15T06:08:07.178Z,0
2018-02-15T06:09:07.427Z,0
2018-02-15T06:10:06.922Z,0
2018-02-15T06:11:07.157Z,0
2018-02-15T06:12:07.658Z,0
2018-02-15T06:13:07.647Z,0
2018-02-15T06:14:07.114Z,0
2018-02-15T06:15:07.362Z,0
2018-02-15T06:16:07.343Z,0
2018-02-15T06:17:07.346Z,0
2018-02-15T06:18:07.076Z,0
2018-02-15T06:19:07.319Z,0
2018-02-15T06:20:07.054Z,0
2018-02-15T06:21:07.047Z,0
2018-02-15T06:22:07.049Z,0
2018-02-15T06:23:07.533Z,0
2018-02-15T06:24:07.014Z,0
2018-02-15T06:25:07.252Z,0
2018-02-15T06:26:07.245Z,0
2018-02-15T06:27:07.476Z,0
2018-02-15T06:28:06.722Z,0
2018-02-15T06:29:07.098Z,0
2018-02-15T06:30:06.739Z,0
2018-02-15T06:31:07.184Z,0
2018-02-15T06:32:07.437Z,0
2018-02-15T06:33:07.175Z,0
2018-02-15T06:34:06.897Z,0
2018-02-15T06:35:06.887Z,0
2018-02-15T06:36:07.137Z,0
2018-02-15T06:37:07.370Z,0
2018-02-15T06:38:06.874Z,0
2018-02-15T06:39:07.108Z,0
2018-02-15T06:40:06.830Z,0
2018-02-15T06:41:06.567Z,0
2018-02-15T06:42:06.837Z,0
2018-02-15T06:43:06.805Z,0
2018-02-15T06:44:07.088Z,0
2018-02-15T06:45:06.566Z,0
2018-02-15T06:46:07.015Z,5
2018-02-15T06:47:06.512Z,5
2018-02-15T06:48:06.488Z,5
2018-02-15T06:49:07.015Z,5
2018-02-15T06:50:06.472Z,5
2018-02-15T06:51:06.963Z,5
2018-02-15T06:52:06.703Z,5
2018-02-15T06:53:06.449Z,5
2018-02-15T06:54:06.943Z,5
2018-02-15T06:55:06.667Z,5
2018-02-15T06:56:06.908Z,5
2018-02-15T06:57:06.898Z,5
2018-02-15T06:58:06.886Z,5
2018-02-15T06:59:08.489Z,5
2018-02-15T07:00:07.150Z,10
2018-02-15T07:01:06.634Z,10
2018-02-15T07:02:06.848Z,10
2018-02-15T07:03:06.334Z,10
2018-02-15T07:04:06.322Z,10
2018-02-15T07:05:06.558Z,10
2018-02-15T07:06:06.804Z,10
2018-02-15T07:07:07.050Z,10
2018-02-15T07:08:06.525Z,10
2018-02-15T07:09:07.145Z,10
2018-02-15T07:10:06.512Z,10
2018-02-15T07:11:06.510Z,15
2018-02-15T07:12:07.036Z,15
2018-02-15T07:13:06.725Z,15
2018-02-15T07:14:06.714Z,15
2018-02-15T07:15:06.460Z,15
2018-02-15T07:16:06.695Z,15
2018-02-15T07:17:06.680Z,15
2018-02-15T07:18:06.922Z,15
2018-02-15T07:19:06.676Z,20
2018-02-15T07:20:06.684Z,20
2018-02-15T07:21:06.655Z,20
2018-02-15T07:22:06.631Z,20
2018-02-15T07:23:06.370Z,20
2018-02-15T07:24:07.074Z,25
2018-02-15T07:25:06.610Z,25
2018-02-15T07:26:06.591Z,25
2018-02-15T07:27:06.333Z,25
2018-02-15T07:28:06.323Z,25
2018-02-15T07:29:09.063Z,25
2018-02-15T07:30:06.563Z,25
2018-02-15T07:31:06.565Z,25
2018-02-15T07:32:06.529Z,25
2018-02-15T07:33:06.534Z,25
2018-02-15T07:34:06.013Z,30
2018-02-15T07:35:06.748Z,30
2018-02-15T07:36:06.230Z,25
2018-02-15T07:37:06.228Z,25
2018-02-15T07:38:06.719Z,25
2018-02-15T07:39:06.460Z,25
2018-02-15T07:40:06.455Z,25
2018-02-15T07:41:06.445Z,30
2018-02-15T07:42:06.171Z,30
2018-02-15T07:43:06.162Z,30
2018-02-15T07:44:06.402Z,30
2018-02-15T07:45:07.593Z,35
2018-02-15T07:46:06.148Z,35
2018-02-15T07:47:06.377Z,35
2018-02-15T07:48:06.377Z,35
2018-02-15T07:49:06.352Z,35
2018-02-15T07:50:06.344Z,40
2018-02-15T07:51:05.842Z,40
2018-02-15T07:52:06.341Z,40
2018-02-15T07:53:06.312Z,40
2018-02-15T07:54:06.302Z,40
2018-02-15T07:55:05.786Z,40
2018-02-15T07:56:06.307Z,40
2018-02-15T07:57:06.288Z,45
2018-02-15T07:58:06.019Z,40
2018-02-15T07:59:06.009Z,40
2018-02-15T08:00:09.868Z,40
2018-02-15T08:01:05.757Z,40
2018-02-15T08:02:06.231Z,40
2018-02-15T08:03:05.953Z,40
2018-02-15T08:04:06.226Z,40
2018-02-15T08:05:05.953Z,40
2018-02-15T08:06:06.191Z,40
2018-02-15T08:07:05.949Z,40
2018-02-15T08:08:06.187Z,45
2018-02-15T08:09:06.143Z,45
2018-02-15T08:10:05.884Z,45
2018-02-15T08:11:05.624Z,45
2018-02-15T08:12:05.878Z,45
2018-02-15T08:13:05.609Z,45
2018-02-15T08:14:05.862Z,45
2018-02-15T08:15:07.693Z,50
2018-02-15T08:16:06.112Z,50
2018-02-15T08:17:05.818Z,50
2018-02-15T08:18:06.049Z,50
2018-02-15T08:19:06.297Z,50
2018-02-15T08:20:05.815Z,50
2018-02-15T08:21:06.020Z,50
2018-02-15T08:22:05.780Z,50
2018-02-15T08:23:06.255Z,50
2018-02-15T08:24:05.745Z,50
2018-02-15T08:25:05.995Z,50
2018-02-15T08:26:06.309Z,50
2018-02-15T08:27:06.225Z,55
2018-02-15T08:28:05.963Z,55
2018-02-15T08:29:05.450Z,60
2018-02-15T08:30:09.599Z,60
2018-02-15T08:31:05.925Z,65
2018-02-15T08:32:05.720Z,65
2018-02-15T08:33:05.948Z,65
2018-02-15T08:34:05.657Z,65
2018-02-15T08:35:05.387Z,65
2018-02-15T08:36:05.619Z,65
2018-02-15T08:37:05.634Z,65
2018-02-15T08:38:37.711Z,60
2018-02-15T08:39:05.845Z,60
2018-02-15T08:40:05.327Z,60
2018-02-15T08:41:05.833Z,60
2018-02-15T08:42:05.590Z,60
2018-02-15T08:43:05.303Z,60
2018-02-15T08:44:05.817Z,60
2018-02-15T08:45:07.971Z,60
2018-02-15T08:46:08.685Z,60
2018-02-15T08:47:05.512Z,60
2018-02-15T08:48:05.488Z,65
2018-02-15T08:49:05.741Z,65
2018-02-15T08:50:04.968Z,65
2018-02-15T08:51:05.720Z,65
2018-02-15T08:52:05.487Z,65
2018-02-15T08:53:05.707Z,70
2018-02-15T08:54:05.176Z,70
2018-02-15T08:55:05.672Z,70
2018-02-15T08:56:05.666Z,75
2018-02-15T08:57:05.154Z,75
2018-02-15T08:58:05.963Z,75
2018-02-15T08:59:05.391Z,80
2018-02-15T09:00:05.620Z,80
2018-02-15T09:01:05.915Z,80
2018-02-15T09:02:05.362Z,80
2018-02-15T09:03:05.844Z,80
2018-02-15T09:04:05.834Z,75
2018-02-15T09:05:05.317Z,75
2018-02-15T09:06:05.345Z,75
2018-02-15T09:07:05.305Z,80
2018-02-15T09:08:05.542Z,80
2018-02-15T09:09:05.784Z,80
2018-02-15T09:10:05.526Z,80
2018-02-15T09:11:05.769Z,80
2018-02-15T09:12:05.265Z,80
2018-02-15T09:13:05.499Z,80
2018-02-15T09:14:04.971Z,80
2018-02-15T09:15:05.472Z,80
2018-02-15T09:16:09.562Z,80
2018-02-15T09:17:05.211Z,85
2018-02-15T09:18:04.949Z,85
2018-02-15T09:19:04.959Z,90
2018-02-15T09:20:05.416Z,90
2018-02-15T09:21:05.403Z,90
2018-02-15T09:22:05.418Z,90
2018-02-15T09:23:05.406Z,90
2018-02-15T09:24:05.139Z,95
2018-02-15T09:25:05.121Z,95
2018-02-15T09:26:04.852Z,95
2018-02-15T09:27:05.371Z,95
2018-02-15T09:28:05.092Z,95
2018-02-15T09:29:05.337Z,95
2018-02-15T09:30:05.065Z,95
2018-02-15T09:31:05.065Z,95
2018-02-15T09:32:05.904Z,95
2018-02-15T09:33:05.557Z,100
2018-02-15T09:34:04.842Z,100
2018-02-15T09:35:05.356Z,100
2018-02-15T09:36:04.760Z,105
2018-02-15T09:37:05.268Z,105
2018-02-15T09:38:04.997Z,110
2018-02-15T09:39:04.989Z,120
2018-02-15T09:40:04.977Z,125
2018-02-15T09:41:05.220Z,130
2018-02-15T09:42:05.200Z,140
2018-02-15T09:43:04.955Z,140
2018-02-15T09:44:04.690Z,140
2018-02-15T09:45:05.175Z,135
2018-02-15T09:46:05.188Z,135
2018-02-15T09:47:06.575Z,135
2018-02-15T09:48:05.410Z,135
2018-02-15T09:49:04.878Z,125
2018-02-15T09:50:04.641Z,125
2018-02-15T09:51:04.871Z,125
2018-02-15T09:52:04.857Z,125
2018-02-15T09:53:04.845Z,130
2018-02-15T09:54:04.837Z,135
2018-02-15T09:55:05.353Z,135
2018-02-15T09:56:04.818Z,140
2018-02-15T09:57:05.067Z,140
2018-02-15T09:58:04.802Z,140
2018-02-15T09:59:04.788Z,145
2018-02-15T10:00:05.034Z,150
2018-02-15T10:01:04.765Z,150
2018-02-15T10:02:07.608Z,150
2018-02-15T10:03:05.010Z,155
2018-02-15T10:04:04.497Z,155
2018-02-15T10:05:05.013Z,150
2018-02-15T10:06:04.735Z,150
2018-02-15T10:07:04.706Z,150
2018-02-15T10:08:04.707Z,150
2018-02-15T10:09:04.942Z,155
2018-02-15T10:10:04.715Z,155
2018-02-15T10:11:04.684Z,150
2018-02-15T10:12:04.956Z,145
2018-02-15T10:13:04.657Z,140
2018-02-15T10:14:05.207Z,140
2018-02-15T10:15:04.897Z,140
2018-02-15T10:16:04.374Z,140
2018-02-15T10:17:04.864Z,135
2018-02-15T10:18:04.865Z,130
2018-02-15T10:19:04.602Z,125
2018-02-15T10:20:04.586Z,125
2018-02-15T10:21:04.586Z,125
2018-02-15T10:22:04.825Z,125
2018-02-15T10:23:05.076Z,125
2018-02-15T10:24:04.815Z,125
2018-02-15T10:54:46.458Z,155
2018-02-15T10:55:46.700Z,150
2018-02-15T10:56:46.167Z,150
2018-02-15T10:57:46.168Z,155
2018-02-15T10:58:45.896Z,160
2018-02-15T10:59:46.142Z,160
2018-02-15T11:00:46.114Z,160
2018-02-15T11:01:45.849Z,160
2018-02-15T11:02:46.147Z,155
2018-02-15T11:03:45.852Z,150
2018-02-15T11:04:45.824Z,145
2018-02-15T11:05:46.060Z,140
2018-02-15T11:06:45.806Z,140
2018-02-15T11:07:46.056Z,145
2018-02-15T11:08:45.786Z,145
2018-02-15T11:09:46.282Z,140
2018-02-15T11:10:46.516Z,140
2018-02-15T11:11:46.005Z,130
2018-02-15T11:12:46.253Z,120
2018-02-15T11:13:46.235Z,120
2018-02-15T11:14:46.234Z,120
2018-02-15T11:15:46.025Z,125
2018-02-15T11:16:45.730Z,130
2018-02-15T11:17:46.455Z,140
2018-02-15T11:18:45.946Z,150
2018-02-15T11:19:46.442Z,150
2018-02-15T11:20:46.018Z,145
2018-02-15T11:21:46.183Z,145
2018-02-15T11:22:45.908Z,145
2018-02-15T11:23:46.419Z,145
2018-02-15T11:24:49.353Z,150
2018-02-15T11:25:46.147Z,150
2018-02-15T11:26:46.127Z,150
2018-02-15T11:27:45.882Z,150
2018-02-15T11:28:46.114Z,145
2018-02-15T11:29:45.852Z,140
2018-02-15T11:30:46.376Z,135
2018-02-15T11:31:46.092Z,130
2018-02-15T11:32:45.571Z,130
2018-02-15T11:33:45.570Z,130
2018-02-15T11:34:45.558Z,130
2018-02-15T11:35:45.588Z,130
2018-02-15T11:36:46.307Z,125
2018-02-15T11:37:45.800Z,120
2018-02-15T11:38:45.543Z,115
2018-02-15T11:39:46.303Z,120
2018-02-15T11:40:45.785Z,125
2018-02-15T11:41:46.271Z,125
2018-02-15T11:42:46.005Z,130
2018-02-15T11:43:45.761Z,130
2018-02-15T11:44:46.029Z,125
2018-02-15T11:45:46.307Z,115
2018-02-15T11:46:45.733Z,115
2018-02-15T11:47:45.970Z,115
2018-02-15T11:48:45.968Z,110
2018-02-15T11:49:46.293Z,110
2018-02-15T11:50:45.959Z,105
2018-02-15T11:51:45.454Z,110
2018-02-15T11:52:45.676Z,110
2018-02-15T11:53:46.171Z,110
2018-02-15T11:54:45.928Z,105
2018-02-15T11:55:49.905Z,105
2018-02-15T11:56:45.963Z,105
2018-02-15T11:57:45.379Z,110
2018-02-15T11:58:45.670Z,105
2018-02-15T11:59:45.627Z,105
2018-02-15T12:00:45.471Z,100
2018-02-15T12:01:46.120Z,100
2018-02-15T12:02:46.103Z,100
2018-02-15T12:03:45.840Z,90
2018-02-15T12:04:45.852Z,85
2018-02-15T12:05:45.581Z,85
2018-02-15T12:06:45.604Z,90
2018-02-15T12:07:45.819Z,95
2018-02-15T12:08:45.809Z,105
2018-02-15T12:09:45.810Z,105
2018-02-15T12:10:45.907Z,110
2018-02-15T12:11:45.793Z,110
2018-02-15T12:12:45.275Z,105
2018-02-15T12:13:45.770Z,105
2018-02-15T12:14:45.768Z,105
2018-02-15T12:15:46.030Z,100
2018-02-15T12:16:45.759Z,100
2018-02-15T12:17:45.504Z,100
2018-02-15T12:18:45.738Z,100
2018-02-15T12:19:46.000Z,100
2018-02-15T12:20:45.776Z,100
2018-02-15T12:21:45.735Z,100
2018-02-15T12:22:45.469Z,100
2018-02-15T12:23:45.446Z,95
2018-02-15T12:24:45.697Z,100
2018-02-15T12:25:46.569Z,100
2018-02-15T12:26:45.686Z,95
2018-02-15T12:27:45.410Z,95
2018-02-15T12:28:45.931Z,95
2018-02-15T12:29:45.705Z,100
2018-02-15T12:30:45.659Z,110
2018-02-15T12:31:44.886Z,105
2018-02-15T12:32:45.637Z,105
2018-02-15T12:33:45.884Z,105
2018-02-15T12:34:45.871Z,105
2018-02-15T12:35:45.615Z,105
2018-02-15T12:36:45.355Z,105
2018-02-15T12:37:45.591Z,105
2018-02-15T12:38:45.840Z,105
2018-02-15T12:39:45.334Z,105
2018-02-15T12:40:45.397Z,105
2018-02-15T12:41:45.315Z,105
2018-02-15T12:42:45.311Z,105
2018-02-15T12:43:45.355Z,105
2018-02-15T12:44:45.044Z,105
2018-02-15T12:45:45.336Z,105
2018-02-15T12:46:45.535Z,100
2018-02-15T12:47:45.264Z,105
2018-02-15T12:48:45.260Z,105
2018-02-15T12:49:45.759Z,105
2018-02-15T12:50:45.499Z,105
2018-02-15T12:51:45.748Z,105
2018-02-15T12:52:45.495Z,105
2018-02-15T12:53:45.257Z,105
2018-02-15T12:54:44.964Z,105
2018-02-15T12:55:44.957Z,105
2018-02-15T12:56:46.318Z,105
2018-02-15T12:57:45.720Z,105
2018-02-15T12:58:45.468Z,105
2018-02-15T12:59:45.458Z,110
2018-02-15T13:00:45.217Z,110
2018-02-15T13:01:45.446Z,115
2018-02-15T13:02:45.157Z,120
2018-02-15T13:03:44.912Z,130
2018-02-15T13:04:45.410Z,130
2018-02-15T13:05:45.015Z,125
2018-02-15T13:06:45.809Z,115
2018-02-15T13:07:45.371Z,105
2018-02-15T13:08:45.617Z,105
2018-02-15T13:09:45.361Z,100
2018-02-15T13:10:45.164Z,100
2018-02-15T13:11:45.354Z,105
2018-02-15T13:12:45.086Z,105
2018-02-15T13:13:45.335Z,105
2018-02-15T13:14:45.327Z,105
2018-02-15T13:15:45.569Z,105
2018-02-15T13:16:45.632Z,100
2018-02-15T13:17:45.310Z,100
2018-02-15T13:18:45.284Z,100
2018-02-15T13:19:45.040Z,95
2018-02-15T13:20:45.097Z,95
2018-02-15T13:21:45.549Z,95
2018-02-15T13:22:44.822Z,85
2018-02-15T13:23:45.552Z,80
2018-02-15T13:24:45.246Z,75
2018-02-15T13:25:45.044Z,75
2018-02-15T13:26:46.009Z,70
2018-02-15T13:27:44.988Z,70
2018-02-15T13:28:44.955Z,65
2018-02-15T13:29:45.206Z,70
2018-02-15T13:30:45.207Z,70
2018-02-15T13:31:44.966Z,70
2018-02-15T13:32:44.929Z,75
2018-02-15T13:33:44.990Z,75
2018-02-15T13:34:45.425Z,75
2018-02-15T13:35:44.909Z,80
2018-02-15T13:36:45.401Z,80
2018-02-15T13:37:44.933Z,80
2018-02-15T13:38:45.154Z,80
2018-02-15T13:39:44.905Z,80
2018-02-15T13:40:44.962Z,85
2018-02-15T13:41:49.174Z,85
2018-02-15T13:42:44.603Z,80
2018-02-15T13:43:44.882Z,75
2018-02-15T13:44:44.856Z,75
2018-02-15T13:45:45.351Z,70
2018-02-15T13:46:45.109Z,70
2018-02-15T13:47:45.345Z,70
2018-02-15T13:48:44.818Z,75
2018-02-15T13:49:44.807Z,65
2018-02-15T13:50:45.069Z,65
2018-02-15T13:51:45.362Z,70
2018-02-15T13:52:44.800Z,75
2018-02-15T13:53:44.797Z,75
2018-02-15T13:54:45.293Z,80
2018-02-15T13:55:45.315Z,85
2018-02-15T13:56:45.013Z,80
2018-02-15T13:57:47.154Z,80
2018-02-15T13:58:44.497Z,80
2018-02-15T13:59:44.985Z,80
2018-02-15T14:00:44.219Z,85
2018-02-15T14:01:44.974Z,85
2018-02-15T14:02:46.312Z,85
2018-02-15T14:03:44.453Z,80
2018-02-15T14:04:44.689Z,80
2018-02-15T14:05:44.763Z,75
2018-02-15T14:06:45.000Z,80
2018-02-15T14:07:45.189Z,80
2018-02-15T14:08:44.930Z,80
2018-02-15T14:09:44.655Z,80
2018-02-15T14:10:45.173Z,85
2018-02-15T14:11:45.189Z,90
2018-02-15T14:12:47.867Z,85
2018-02-15T14:13:45.163Z,80
2018-02-15T14:14:44.893Z,80
2018-02-15T14:15:44.887Z,80
2018-02-15T14:16:45.120Z,80
2018-02-15T14:17:44.869Z,75
2018-02-15T14:18:44.355Z,75
2018-02-15T14:19:44.884Z,75
2018-02-15T14:20:45.184Z,70
2018-02-15T14:21:44.818Z,75
2018-02-15T14:22:45.076Z,75
2018-02-15T14:23:44.828Z,80
2018-02-15T14:24:45.066Z,85
2018-02-15T14:25:44.558Z,85
2018-02-15T14:26:45.161Z,80
2018-02-15T14:27:45.381Z,80
2018-02-15T14:28:44.535Z,80
2018-02-15T14:29:44.262Z,80
2018-02-15T14:30:44.535Z,80
2018-02-15T14:31:44.501Z,80
2018-02-15T14:32:45.003Z,80
2018-02-15T14:33:44.231Z,80
2018-02-15T14:34:44.484Z,85
2018-02-15T14:35:44.468Z,85
2018-02-15T14:36:44.459Z,90
2018-02-15T14:37:44.453Z,95
2018-02-15T14:38:44.694Z,95
2018-02-15T14:39:44.178Z,95
2018-02-15T14:40:44.778Z,95
2018-02-15T14:41:44.162Z,95
2018-02-15T14:42:44.424Z,95
2018-02-15T14:43:44.209Z,95
2018-02-15T14:44:44.405Z,90
2018-02-15T14:45:44.217Z,85
2018-02-15T14:46:44.642Z,85
2018-02-15T14:47:44.384Z,80
2018-02-15T14:48:44.615Z,80
2018-02-15T14:49:44.367Z,80
2018-02-15T14:50:44.393Z,85
2018-02-15T14:51:44.608Z,90
2018-02-15T14:52:44.607Z,90